King Philippos — 9HA3023 — position and weather

sailwx.info

Track history (hours):
 
Tides and Currents Weather Stations Pressure Air Temp Water Temp Dewpoint Dewpoint Depression Visibility Wind Speed Wind Dir Waves Ship Positions

King Philippos

Last reported at 2014-Dec-27 23:19 UTC. Time now 2015-Jan-28 01:31 UTC.
Position N 01°12' E 103°50'.
Warning: this ship's position is 31 days out of date.

Length 250 m; draft 8.5 m.

Type: Tanker. MMSI: 229046000.

Date/timePositionNaut miles runAvg speedWind from/ knotsBaromVisibWave heightAir tempDewpointWater temp
2014-Dec-27 23:19N 01°12' E 103°50'7 9.7
2014-Dec-27 22:33N 01°16' E 103°56'2 0.9
2014-Dec-27 20:31N 01°15' E 103°54'0 0.0
2014-Dec-27 19:25N 01°15' E 103°54'0 0.0
2014-Dec-27 18:28N 01°15' E 103°54'0 0.0
2014-Dec-27 17:25N 01°15' E 103°54'0 0.0
2014-Dec-27 16:31N 01°15' E 103°54'0 0.1
2014-Dec-27 14:13N 01°16' E 103°54'0 0.0
2014-Dec-27 13:31N 01°16' E 103°54'0 0.0
2014-Dec-27 12:13N 01°16' E 103°55'0 0.0
2014-Dec-27 10:13N 01°16' E 103°55'0 0.1
2014-Dec-27 07:31N 01°15' E 103°54'0 0.1
2014-Dec-27 06:22N 01°15' E 103°54'0 0.1
2014-Dec-27 05:19N 01°15' E 103°54'0 0.0
2014-Dec-27 04:33N 01°15' E 103°54'5 4.9
2014-Dec-27 03:32N 01°12' E 103°51'5 0.2
2014-Dec-25 20:33N 01°15' E 103°47'7 7.4
2014-Dec-25 19:33N 01°14' E 103°54'4 4.2
2014-Dec-25 18:33N 01°17' E 103°56'0 0.0
2014-Dec-25 17:21N 01°17' E 103°56'0 0.0
2014-Dec-25 16:24N 01°17' E 103°56'0 0.0
2014-Dec-25 15:24N 01°17' E 103°56'0 0.2
2014-Dec-25 14:12N 01°17' E 103°57'0 0.0
2014-Dec-25 11:24N 01°17' E 103°57'0 0.0
2014-Dec-25 09:33N 01°17' E 103°57'0 0.0
2014-Dec-25 07:24N 01°17' E 103°57'0 0.0
2014-Dec-25 06:18N 01°17' E 103°57'0 0.2
2014-Dec-25 05:30N 01°17' E 103°56'0 0.1
2014-Dec-25 04:18N 01°17' E 103°56'0 0.0
2014-Dec-25 03:18N 01°17' E 103°56'0 0.0
2014-Dec-25 02:30N 01°17' E 103°56'0 0.0
2014-Dec-25 01:27N 01°17' E 103°56'0 0.0
2014-Dec-25 00:12N 01°17' E 103°56'0 0.0
2014-Dec-24 23:18N 01°17' E 103°56'0 0.0
2014-Dec-24 22:06N 01°17' E 103°56'0 0.0
2014-Dec-24 21:30N 01°17' E 103°56'0 0.0
2014-Dec-24 20:30N 01°17' E 103°56'0 0.0
2014-Dec-24 19:09N 01°17' E 103°56'0 0.0
2014-Dec-24 18:18N 01°17' E 103°56'0 0.0
2014-Dec-24 17:30N 01°17' E 103°56'0 0.0
2014-Dec-24 16:30N 01°17' E 103°56'1 1.3
2014-Dec-24 15:33N 01°16' E 103°56'8 7.9
2014-Dec-24 14:33N 01°12' E 103°49'2 0.0
2014-Dec-23 02:15N 01°12' E 103°48'0 0.3
2014-Dec-23 01:33N 01°12' E 103°48'3 3.2
2014-Dec-23 00:33N 01°15' E 103°46'13 0.4
2014-Dec-21 16:30N 01°06' E 103°37'0 0.0
2014-Dec-21 15:33N 01°06' E 103°37'0 0.0
2014-Dec-21 14:33N 01°06' E 103°37'60 1.6
2014-Dec-20 01:14N 01°38' E 102°47'812.2
2014-Dec-20 00:32N 01°42' E 102°39'1212.4
2014-Dec-19 23:32N 01°47' E 102°28'  
Track history (hours):
 
Tides and Currents Weather Stations Pressure Air Temp Water Temp Dewpoint Dewpoint Depression Visibility Wind Speed Wind Dir Waves Ship Positions

King Philippos

Last reported at 2014-Dec-27 23:19 UTC. Time now 2015-Jan-28 01:31 UTC.
Position N 01°12' E 103°50'.
Warning: this ship's position is 31 days out of date.

Length 250 m; draft 8.5 m.

Type: Tanker. MMSI: 229046000.

Date/timePositionNaut miles runAvg speedWind from/ knotsBaromVisibWave heightAir tempDewpointWater temp
2014-Dec-27 23:19N 01°12' E 103°50'7 9.7
2014-Dec-27 22:33N 01°16' E 103°56'2 0.9
2014-Dec-27 20:31N 01°15' E 103°54'0 0.0
2014-Dec-27 19:25N 01°15' E 103°54'0 0.0
2014-Dec-27 18:28N 01°15' E 103°54'0 0.0
2014-Dec-27 17:25N 01°15' E 103°54'0 0.0
2014-Dec-27 16:31N 01°15' E 103°54'0 0.1
2014-Dec-27 14:13N 01°16' E 103°54'0 0.0
2014-Dec-27 13:31N 01°16' E 103°54'0 0.0
2014-Dec-27 12:13N 01°16' E 103°55'0 0.0
2014-Dec-27 10:13N 01°16' E 103°55'0 0.1
2014-Dec-27 07:31N 01°15' E 103°54'0 0.1
2014-Dec-27 06:22N 01°15' E 103°54'0 0.1
2014-Dec-27 05:19N 01°15' E 103°54'0 0.0
2014-Dec-27 04:33N 01°15' E 103°54'5 4.9
2014-Dec-27 03:32N 01°12' E 103°51'5 0.2
2014-Dec-25 20:33N 01°15' E 103°47'7 7.4
2014-Dec-25 19:33N 01°14' E 103°54'4 4.2
2014-Dec-25 18:33N 01°17' E 103°56'0 0.0
2014-Dec-25 17:21N 01°17' E 103°56'0 0.0
2014-Dec-25 16:24N 01°17' E 103°56'0 0.0
2014-Dec-25 15:24N 01°17' E 103°56'0 0.2
2014-Dec-25 14:12N 01°17' E 103°57'0 0.0
2014-Dec-25 11:24N 01°17' E 103°57'0 0.0
2014-Dec-25 09:33N 01°17' E 103°57'0 0.0
2014-Dec-25 07:24N 01°17' E 103°57'0 0.0
2014-Dec-25 06:18N 01°17' E 103°57'0 0.2
2014-Dec-25 05:30N 01°17' E 103°56'0 0.1
2014-Dec-25 04:18N 01°17' E 103°56'0 0.0
2014-Dec-25 03:18N 01°17' E 103°56'0 0.0
2014-Dec-25 02:30N 01°17' E 103°56'0 0.0
2014-Dec-25 01:27N 01°17' E 103°56'0 0.0
2014-Dec-25 00:12N 01°17' E 103°56'0 0.0
2014-Dec-24 23:18N 01°17' E 103°56'0 0.0
2014-Dec-24 22:06N 01°17' E 103°56'0 0.0
2014-Dec-24 21:30N 01°17' E 103°56'0 0.0
2014-Dec-24 20:30N 01°17' E 103°56'0 0.0
2014-Dec-24 19:09N 01°17' E 103°56'0 0.0
2014-Dec-24 18:18N 01°17' E 103°56'0 0.0
2014-Dec-24 17:30N 01°17' E 103°56'0 0.0
2014-Dec-24 16:30N 01°17' E 103°56'1 1.3
2014-Dec-24 15:33N 01°16' E 103°56'8 7.9
2014-Dec-24 14:33N 01°12' E 103°49'2 0.0
2014-Dec-23 02:15N 01°12' E 103°48'0 0.3
2014-Dec-23 01:33N 01°12' E 103°48'3 3.2
2014-Dec-23 00:33N 01°15' E 103°46'13 0.4
2014-Dec-21 16:30N 01°06' E 103°37'0 0.0
2014-Dec-21 15:33N 01°06' E 103°37'0 0.0
2014-Dec-21 14:33N 01°06' E 103°37'60 1.6
2014-Dec-20 01:14N 01°38' E 102°47'812.2
2014-Dec-20 00:32N 01°42' E 102°39'1212.4
2014-Dec-19 23:32N 01°47' E 102°28'  

Dump ship's entire track history